createdAt,value
2022-10-01T00:00:55.297Z,111.53
2022-10-01T00:03:25.088Z,117.95
2022-10-01T00:06:18.973Z,108.47
2022-10-01T00:08:48.870Z,109.40
2022-10-01T00:11:24.223Z,113.63
2022-10-01T00:16:20.582Z,100.00
2022-10-01T00:18:48.180Z,111.68
2022-10-01T00:21:18.080Z,137.80
2022-10-01T00:23:46.134Z,111.70
2022-10-01T00:26:18.362Z,126.13
2022-10-01T00:28:47.121Z,110.80
2022-10-01T00:31:16.006Z,117.65
2022-10-01T00:33:42.967Z,104.78
2022-10-01T00:36:11.212Z,106.10
2022-10-01T00:38:40.313Z,115.63
2022-10-01T00:41:07.820Z,97.45
2022-10-01T00:43:37.943Z,91.05
2022-10-01T00:46:21.235Z,84.05
2022-10-01T00:49:06.532Z,82.60
2022-10-01T00:51:36.667Z,86.35
2022-10-01T00:54:31.276Z,80.78
2022-10-01T00:56:59.616Z,77.43
2022-10-01T00:59:26.865Z,77.53
2022-10-01T01:01:54.131Z,76.15
2022-10-01T01:04:20.917Z,78.32
2022-10-01T01:06:56.691Z,72.70
2022-10-01T01:09:34.799Z,74.35
2022-10-01T01:12:07.936Z,87.80
2022-10-01T01:15:16.499Z,79.97
2022-10-01T01:18:02.542Z,70.70
2022-10-01T01:20:47.636Z,73.22
2022-10-01T01:23:17.184Z,73.45
2022-10-01T01:25:55.892Z,66.97
2022-10-01T01:28:34.485Z,69.55
2022-10-01T01:31:05.166Z,71.22
2022-10-01T01:33:34.363Z,72.70
2022-10-01T01:36:16.374Z,61.67
2022-10-01T01:38:45.621Z,56.28
2022-10-01T01:41:13.417Z,56.65
2022-10-01T01:43:44.331Z,53.35
2022-10-01T01:46:13.341Z,46.67
2022-10-01T01:48:41.855Z,51.80
2022-10-01T01:51:19.834Z,53.28
2022-10-01T01:53:46.532Z,54.92
2022-10-01T01:56:14.223Z,58.60
2022-10-01T01:58:40.975Z,48.05
2022-10-01T02:01:07.857Z,53.15
2022-10-01T02:03:34.949Z,44.67
2022-10-01T02:06:36.331Z,43.03
2022-10-01T02:09:04.236Z,48.58
2022-10-01T02:11:37.051Z,43.60
2022-10-01T02:14:15.837Z,42.75
2022-10-01T02:16:54.070Z,39.28
2022-10-01T02:19:38.869Z,34.17
2022-10-01T02:22:12.874Z,39.15
2022-10-01T02:24:49.532Z,39.47
2022-10-01T02:27:21.080Z,38.60
2022-10-01T02:29:49.835Z,40.40
2022-10-01T02:32:18.341Z,39.85
2022-10-01T02:34:46.172Z,39.80
2022-10-01T02:37:12.820Z,40.67
2022-10-01T02:39:43.805Z,43.38
2022-10-01T02:42:12.618Z,37.50
2022-10-01T02:44:42.650Z,37.35
2022-10-01T02:47:20.934Z,35.80
2022-10-01T02:49:48.309Z,38.35
2022-10-01T02:52:35.311Z,39.38
2022-10-01T02:55:09.338Z,37.30
2022-10-01T02:57:36.841Z,38.70
2022-10-01T03:00:11.247Z,34.08
2022-10-01T03:02:38.135Z,32.42
2022-10-01T03:05:05.574Z,31.88
2022-10-01T03:07:34.732Z,34.03
2022-10-01T03:10:02.554Z,28.98
2022-10-01T03:12:29.281Z,31.73
2022-10-01T03:14:56.025Z,31.25
2022-10-01T03:17:22.748Z,30.25
2022-10-01T03:19:49.493Z,30.20
2022-10-01T03:22:22.788Z,26.58
2022-10-01T03:24:52.952Z,24.13
2022-10-01T03:27:20.740Z,27.23
2022-10-01T03:29:47.740Z,28.40
2022-10-01T03:32:15.079Z,28.83
2022-10-01T03:34:41.728Z,26.73
2022-10-01T03:37:08.404Z,24.67
2022-10-01T03:39:35.406Z,25.02
2022-10-01T03:42:02.527Z,28.63
2022-10-01T03:44:29.183Z,29.60
2022-10-01T03:46:55.901Z,27.65
2022-10-01T03:49:22.567Z,25.08
2022-10-01T03:51:49.376Z,25.00
2022-10-01T03:54:16.005Z,24.88
2022-10-01T03:56:42.739Z,24.73
2022-10-01T03:59:11.013Z,30.13
2022-10-01T04:01:39.320Z,21.70
2022-10-01T04:04:06.514Z,25.67
2022-10-01T04:06:33.272Z,23.30
2022-10-01T04:09:00.042Z,26.00
2022-10-01T04:11:26.758Z,23.52
2022-10-01T04:13:53.468Z,23.48
2022-10-01T04:16:20.192Z,24.05
2022-10-01T04:18:46.845Z,23.15
2022-10-01T04:21:15.367Z,23.27
2022-10-01T04:23:42.307Z,23.20
2022-10-01T04:26:09.506Z,21.40
2022-10-01T04:28:36.201Z,24.92
2022-10-01T04:31:21.512Z,18.42
2022-10-01T04:33:48.453Z,16.15
2022-10-01T04:36:15.199Z,17.77
2022-10-01T04:38:41.811Z,17.13
2022-10-01T04:41:09.344Z,21.83
2022-10-01T04:43:36.535Z,21.38
2022-10-01T04:46:03.134Z,21.33
2022-10-01T04:48:29.828Z,19.45
2022-10-01T04:50:56.433Z,25.17
2022-10-01T04:53:23.121Z,20.98
2022-10-01T04:55:49.754Z,22.13
2022-10-01T04:58:16.368Z,19.77
2022-10-01T05:00:43.010Z,17.75
2022-10-01T05:03:09.951Z,17.35
2022-10-01T05:05:37.333Z,17.35
2022-10-01T05:08:03.966Z,19.95
2022-10-01T05:10:31.478Z,18.00
2022-10-01T05:13:01.392Z,21.40
2022-10-01T05:15:28.785Z,20.55
2022-10-01T05:17:55.559Z,18.15
2022-10-01T05:20:25.986Z,17.55
2022-10-01T05:22:54.334Z,19.05
2022-10-01T05:25:21.114Z,18.02
2022-10-01T05:27:48.048Z,21.25
2022-10-01T05:30:24.197Z,22.05
2022-10-01T05:32:56.470Z,18.88
2022-10-01T05:35:23.208Z,20.00
2022-10-01T05:37:53.570Z,16.60
2022-10-01T05:40:20.439Z,14.73
2022-10-01T05:42:47.379Z,16.98
2022-10-01T05:45:14.078Z,14.98
2022-10-01T05:47:42.444Z,20.63
2022-10-01T05:50:09.720Z,19.05
2022-10-01T05:52:36.382Z,16.80
2022-10-01T05:55:03.096Z,20.70
2022-10-01T05:57:30.507Z,15.27
2022-10-01T05:59:58.066Z,16.88
2022-10-01T06:02:24.852Z,15.32
2022-10-01T06:04:51.684Z,15.25
2022-10-01T06:07:18.295Z,13.75
2022-10-01T06:09:45.272Z,16.45
2022-10-01T06:12:13.649Z,16.25
2022-10-01T06:14:43.036Z,15.88
2022-10-01T06:17:09.706Z,16.90
2022-10-01T06:19:36.348Z,17.35
2022-10-01T06:22:03.008Z,18.13
2022-10-01T06:24:31.126Z,23.05
2022-10-01T06:26:57.807Z,21.63
2022-10-01T06:29:24.503Z,19.52
2022-10-01T06:31:51.856Z,30.50
2022-10-01T06:34:18.513Z,39.17
2022-10-01T06:36:45.203Z,46.22
2022-10-01T06:39:11.816Z,50.90
2022-10-01T06:41:38.435Z,44.38
2022-10-01T06:44:05.129Z,39.63
2022-10-01T06:46:32.515Z,29.40
2022-10-01T06:48:59.389Z,28.50
2022-10-01T06:51:44.664Z,22.27
2022-10-01T06:54:11.440Z,15.07
2022-10-01T06:56:38.216Z,15.70
2022-10-01T06:59:04.884Z,13.45
2022-10-01T07:01:33.026Z,12.48
2022-10-01T07:04:07.370Z,36.55
2022-10-01T07:06:34.071Z,18.60
2022-10-01T07:09:00.765Z,16.63
2022-10-01T07:11:27.356Z,20.02
2022-10-01T07:13:54.780Z,30.45
2022-10-01T07:16:21.671Z,38.55
2022-10-01T07:18:48.371Z,42.55
2022-10-01T07:21:15.005Z,37.72
2022-10-01T07:23:41.705Z,24.42
2022-10-01T07:26:09.263Z,20.33
2022-10-01T07:28:35.859Z,16.45
2022-10-01T07:31:03.719Z,12.82
2022-10-01T07:33:30.581Z,21.25
2022-10-01T07:36:00.469Z,19.70
2022-10-01T07:38:27.094Z,18.58
2022-10-01T07:40:54.932Z,11.70
2022-10-01T07:43:22.114Z,14.85
2022-10-01T07:45:50.180Z,19.60
2022-10-01T07:48:16.993Z,13.80
2022-10-01T07:50:47.319Z,15.20
2022-10-01T07:53:14.271Z,5.30
2022-10-01T07:55:40.987Z,8.32
2022-10-01T07:58:07.912Z,5.13
2022-10-01T08:00:37.287Z,3.47
2022-10-01T08:03:04.472Z,5.47
2022-10-01T08:05:46.612Z,8.95
2022-10-01T08:08:14.751Z,9.25
2022-10-01T08:10:41.412Z,4.70
2022-10-01T08:13:14.998Z,5.72
2022-10-01T08:15:46.539Z,12.55
2022-10-01T08:18:13.806Z,11.57
2022-10-01T08:20:40.761Z,11.48
2022-10-01T08:23:10.443Z,5.75
2022-10-01T08:25:39.855Z,12.75
2022-10-01T08:28:07.493Z,17.02
2022-10-01T08:30:34.611Z,14.90
2022-10-01T08:33:02.041Z,8.82
2022-10-01T08:35:29.478Z,12.45
2022-10-01T08:38:01.055Z,5.28
2022-10-01T08:40:27.775Z,6.38
2022-10-01T08:43:00.106Z,4.53
2022-10-01T08:45:38.762Z,6.13
2022-10-01T08:48:26.909Z,5.07
2022-10-01T08:51:16.086Z,4.57
2022-10-01T08:53:58.555Z,3.00
2022-10-01T08:56:30.897Z,2.60
2022-10-01T08:58:59.690Z,6.75
2022-10-01T09:01:27.245Z,3.40
2022-10-01T09:03:54.300Z,2.58
2022-10-01T09:06:23.045Z,4.72
2022-10-01T09:08:55.760Z,3.15
2022-10-01T09:11:25.077Z,3.80
2022-10-01T09:14:04.215Z,2.65
2022-10-01T09:16:42.702Z,4.43
2022-10-01T09:19:15.196Z,5.15
2022-10-01T09:21:49.456Z,6.68
2022-10-01T09:24:33.860Z,4.30
2022-10-01T09:27:01.943Z,3.10
2022-10-01T09:29:40.798Z,7.35
2022-10-01T09:32:07.595Z,2.47
2022-10-01T09:34:38.208Z,2.08
2022-10-01T09:37:28.550Z,2.20
2022-10-01T09:40:04.975Z,3.78
2022-10-01T09:42:31.777Z,1.92
2022-10-01T09:44:58.732Z,2.72
2022-10-01T09:47:25.867Z,3.90
2022-10-01T09:49:52.792Z,4.03
2022-10-01T09:52:35.277Z,3.03
2022-10-01T09:55:11.529Z,2.85
2022-10-01T09:57:41.343Z,2.92
2022-10-01T10:00:10.770Z,3.25
2022-10-01T10:02:49.145Z,2.25
2022-10-01T10:05:22.243Z,3.03
2022-10-01T10:08:12.575Z,2.03
2022-10-01T10:10:40.290Z,1.80
2022-10-01T10:13:10.840Z,1.58
2022-10-01T10:15:59.171Z,1.88
2022-10-01T10:18:34.639Z,2.50
2022-10-01T10:21:09.026Z,3.38
2022-10-01T10:23:50.397Z,3.40
2022-10-01T10:26:43.474Z,2.78
2022-10-01T10:29:26.491Z,2.25
2022-10-01T10:31:55.648Z,2.58
2022-10-01T10:34:38.453Z,3.13
2022-10-01T10:37:13.921Z,2.35
2022-10-01T10:39:43.113Z,2.60
2022-10-01T10:42:15.205Z,2.88
2022-10-01T10:44:43.987Z,2.80
2022-10-01T10:47:13.785Z,3.42
2022-10-01T10:50:03.299Z,4.10
2022-10-01T10:52:36.556Z,5.20
2022-10-01T10:55:31.124Z,2.70
2022-10-01T10:58:13.300Z,2.72
2022-10-01T11:00:56.257Z,2.58
2022-10-01T11:03:26.113Z,4.53
2022-10-01T11:05:53.219Z,3.45
2022-10-01T11:08:27.839Z,2.25
2022-10-01T11:11:24.577Z,2.40
2022-10-01T11:14:09.568Z,4.15
2022-10-01T11:16:48.925Z,3.70
2022-10-01T11:19:23.785Z,4.15
2022-10-01T11:21:56.622Z,2.92
2022-10-01T11:24:38.275Z,3.80
2022-10-01T11:27:05.998Z,4.10
2022-10-01T11:29:36.100Z,4.55
2022-10-01T11:32:19.489Z,2.97
2022-10-01T11:35:05.195Z,4.10
2022-10-01T11:37:49.731Z,2.40
2022-10-01T11:40:26.053Z,3.20
2022-10-01T11:42:57.799Z,4.32
2022-10-01T11:45:29.702Z,3.28
2022-10-01T11:48:01.182Z,4.47
2022-10-01T11:50:38.510Z,3.88
2022-10-01T11:53:27.292Z,6.10
2022-10-01T11:56:15.530Z,3.40
2022-10-01T11:58:52.079Z,5.47
2022-10-01T12:01:26.146Z,5.30
2022-10-01T12:03:52.794Z,6.20
2022-10-01T12:06:58.169Z,6.43
2022-10-01T12:09:57.060Z,8.88
2022-10-01T12:12:40.241Z,4.28
2022-10-01T12:15:12.021Z,3.33
2022-10-01T12:17:45.501Z,4.18
2022-10-01T12:20:24.374Z,4.05
2022-10-01T12:22:52.113Z,3.92
2022-10-01T12:25:20.990Z,6.45
2022-10-01T12:28:00.085Z,6.20
2022-10-01T12:30:32.717Z,7.55
2022-10-01T12:33:25.695Z,5.28
2022-10-01T12:36:17.485Z,4.95
2022-10-01T12:38:44.047Z,5.68
2022-10-01T12:41:39.367Z,5.35
2022-10-01T12:44:24.764Z,4.95
2022-10-01T12:47:00.727Z,4.60
2022-10-01T12:49:48.462Z,6.95
2022-10-01T12:52:34.963Z,7.20
2022-10-01T12:55:23.429Z,4.38
2022-10-01T12:58:19.696Z,6.18
2022-10-01T13:01:03.128Z,6.28
2022-10-01T13:03:45.439Z,10.40
2022-10-01T13:06:21.349Z,8.98
2022-10-01T13:09:04.194Z,6.78
2022-10-01T13:11:56.246Z,8.52
2022-10-01T13:14:23.133Z,7.10
2022-10-01T13:16:54.576Z,9.63
2022-10-01T13:19:34.173Z,9.57
2022-10-01T13:22:19.154Z,8.60
2022-10-01T13:24:53.494Z,9.77
2022-10-01T13:27:21.734Z,7.30
2022-10-01T13:29:54.784Z,8.52
2022-10-01T13:32:30.851Z,6.22
2022-10-01T13:34:58.406Z,5.70
2022-10-01T13:37:38.785Z,8.20
2022-10-01T13:40:26.934Z,8.23
2022-10-01T13:43:02.275Z,8.70
2022-10-01T13:45:40.806Z,7.50
2022-10-01T13:48:08.011Z,9.02
2022-10-01T13:50:34.917Z,7.38
2022-10-01T13:53:15.068Z,6.22
2022-10-01T13:55:43.784Z,7.03
2022-10-01T13:58:25.118Z,6.38
2022-10-01T14:00:54.387Z,5.40
2022-10-01T14:03:46.745Z,7.47
2022-10-01T14:06:27.351Z,6.53
2022-10-01T14:09:04.827Z,6.50
2022-10-01T14:11:52.437Z,6.65
2022-10-01T14:14:41.752Z,8.25
2022-10-01T14:17:29.110Z,7.13
2022-10-01T14:20:10.261Z,7.22
2022-10-01T14:23:11.632Z,6.38
2022-10-01T14:25:51.445Z,6.90
2022-10-01T14:28:20.072Z,8.38
2022-10-01T14:31:09.099Z,6.38
2022-10-01T14:34:23.288Z,6.30
2022-10-01T14:36:51.519Z,8.88
2022-10-01T14:39:19.288Z,6.68
2022-10-01T14:41:48.390Z,9.75
2022-10-01T14:44:22.559Z,6.55
2022-10-01T14:46:50.857Z,6.57
2022-10-01T14:49:29.591Z,8.15
2022-10-01T14:52:02.253Z,7.22
2022-10-01T14:54:30.247Z,9.68
2022-10-01T14:56:57.104Z,6.70
2022-10-01T14:59:37.039Z,8.00
2022-10-01T15:02:17.421Z,10.35
2022-10-01T15:04:48.727Z,11.25
2022-10-01T15:07:17.220Z,12.07
2022-10-01T15:09:45.670Z,10.70
2022-10-01T15:12:14.085Z,11.30
2022-10-01T15:14:41.358Z,10.60
2022-10-01T15:17:16.595Z,10.43
2022-10-01T15:19:45.195Z,12.73
2022-10-01T15:22:13.151Z,9.65
2022-10-01T15:24:46.525Z,8.55
2022-10-01T15:27:15.720Z,11.43
2022-10-01T15:29:43.001Z,9.15
2022-10-01T15:32:22.567Z,9.85
2022-10-01T15:34:55.240Z,9.32
2022-10-01T15:37:34.736Z,9.73
2022-10-01T15:40:02.286Z,9.45
2022-10-01T15:42:31.640Z,9.88
2022-10-01T15:45:23.081Z,13.57
2022-10-01T15:47:56.998Z,8.82
2022-10-01T15:50:32.406Z,11.40
2022-10-01T15:53:23.418Z,11.25
2022-10-01T15:55:52.515Z,11.52
2022-10-01T15:58:22.136Z,9.75
2022-10-01T16:01:04.116Z,10.70
2022-10-01T16:03:33.693Z,12.18
2022-10-01T16:06:02.581Z,17.52
2022-10-01T16:08:34.668Z,10.07
2022-10-01T16:11:18.778Z,10.40
2022-10-01T16:13:50.632Z,13.30
2022-10-01T16:16:24.119Z,16.60
2022-10-01T16:19:18.794Z,17.48
2022-10-01T16:22:17.428Z,18.80
2022-10-01T16:24:48.957Z,16.33
2022-10-01T16:27:18.811Z,22.52
2022-10-01T16:29:54.677Z,17.83
2022-10-01T16:32:21.330Z,12.95
2022-10-01T16:34:47.949Z,14.85
2022-10-01T16:37:15.450Z,17.40
2022-10-01T16:39:45.069Z,14.15
2022-10-01T16:42:24.794Z,12.40
2022-10-01T16:44:51.856Z,12.90
2022-10-01T16:47:18.491Z,11.73
2022-10-01T16:49:47.153Z,13.60
2022-10-01T16:52:16.581Z,18.67
2022-10-01T16:54:44.540Z,13.32
2022-10-01T16:57:11.449Z,15.57
2022-10-01T16:59:38.080Z,14.68
2022-10-01T17:02:04.771Z,12.00
2022-10-01T17:04:33.949Z,17.35
2022-10-01T17:07:01.252Z,13.32
2022-10-01T17:09:27.958Z,11.90
2022-10-01T17:11:54.950Z,14.10
2022-10-01T17:14:22.215Z,15.77
2022-10-01T17:16:50.842Z,23.08
2022-10-01T17:19:18.583Z,14.90
2022-10-01T17:21:45.822Z,12.30
2022-10-01T17:24:13.119Z,13.82
2022-10-01T17:26:42.014Z,11.98
2022-10-01T17:29:09.998Z,13.43
2022-10-01T17:31:46.649Z,13.45
2022-10-01T17:34:16.879Z,13.00
2022-10-01T17:36:43.529Z,13.38
2022-10-01T17:39:10.331Z,16.70
2022-10-01T17:41:36.900Z,15.20
2022-10-01T17:44:03.487Z,13.15
2022-10-01T17:46:30.989Z,13.25
2022-10-01T17:48:57.803Z,14.38
2022-10-01T17:51:27.427Z,13.45
2022-10-01T17:53:55.058Z,14.23
2022-10-01T17:56:21.798Z,13.57
2022-10-01T17:58:48.516Z,13.38
2022-10-01T18:01:19.656Z,13.98
2022-10-01T18:03:46.616Z,14.30
2022-10-01T18:06:16.242Z,15.30
2022-10-01T18:08:58.154Z,14.63
2022-10-01T18:11:26.834Z,18.38
2022-10-01T18:13:53.481Z,15.18
2022-10-01T18:16:20.200Z,17.00
2022-10-01T18:21:40.295Z,16.00
2022-10-01T18:24:07.142Z,14.10
2022-10-01T18:26:34.143Z,14.95
2022-10-01T18:29:01.144Z,14.88
2022-10-01T18:31:36.723Z,17.08
2022-10-01T18:34:10.604Z,16.65
2022-10-01T18:37:03.009Z,18.38
2022-10-01T18:39:49.747Z,15.15
2022-10-01T18:42:22.117Z,16.40
2022-10-01T18:45:16.294Z,20.23
2022-10-01T18:47:54.911Z,15.15
2022-10-01T18:50:26.136Z,22.45
2022-10-01T18:52:58.442Z,19.33
2022-10-01T18:56:09.388Z,24.40
2022-10-01T18:59:19.464Z,25.98
2022-10-01T19:02:04.727Z,24.38
2022-10-01T19:04:34.422Z,28.42
2022-10-01T19:07:18.814Z,24.83
2022-10-01T19:09:52.118Z,25.17
2022-10-01T19:12:40.702Z,22.45
2022-10-01T19:15:17.318Z,31.58
2022-10-01T19:18:11.839Z,29.70
2022-10-01T19:20:48.137Z,30.33
2022-10-01T19:23:20.609Z,22.67
2022-10-01T19:25:54.968Z,22.88
2022-10-01T19:28:40.099Z,17.13
2022-10-01T19:31:12.822Z,20.77
2022-10-01T19:33:47.461Z,26.48
2022-10-01T19:36:25.601Z,25.02
2022-10-01T19:38:54.177Z,21.55
2022-10-01T19:41:48.381Z,25.67
2022-10-01T19:44:28.606Z,25.45
2022-10-01T19:46:58.391Z,22.10
2022-10-01T19:49:38.498Z,24.10
2022-10-01T19:52:18.346Z,23.27
2022-10-01T19:55:05.846Z,25.08
2022-10-01T19:57:39.079Z,22.58
2022-10-01T20:00:12.388Z,22.63
2022-10-01T20:03:11.229Z,20.60
2022-10-01T20:05:53.206Z,21.52
2022-10-01T20:08:46.303Z,24.52
2022-10-01T20:11:23.682Z,26.90
2022-10-01T20:14:02.228Z,27.23
2022-10-01T20:16:29.036Z,22.95
2022-10-01T20:19:07.877Z,24.55
2022-10-01T20:22:00.485Z,22.08
2022-10-01T20:24:49.269Z,23.13
2022-10-01T20:27:52.624Z,22.35
2022-10-01T20:30:21.431Z,21.30
2022-10-01T20:33:06.430Z,23.30
2022-10-01T20:35:46.808Z,25.65
2022-10-01T20:38:17.477Z,23.08
2022-10-01T20:40:50.859Z,25.38
2022-10-01T20:43:31.373Z,24.25
2022-10-01T20:46:00.257Z,25.52
2022-10-01T20:48:32.574Z,21.73
2022-10-01T20:51:30.868Z,24.98
2022-10-01T20:54:04.274Z,27.80
2022-10-01T20:56:35.167Z,26.25
2022-10-01T20:59:21.958Z,26.25
2022-10-01T21:02:23.879Z,20.73
2022-10-01T21:05:04.489Z,22.95
2022-10-01T21:08:08.566Z,24.63
2022-10-01T21:10:48.744Z,24.55
2022-10-01T21:13:17.384Z,19.50
2022-10-01T21:15:55.145Z,19.98
2022-10-01T21:18:40.050Z,18.85
2022-10-01T21:21:30.105Z,18.52
2022-10-01T21:24:06.995Z,18.35
2022-10-01T21:26:43.804Z,19.55
2022-10-01T21:29:22.115Z,17.45
2022-10-01T21:32:12.658Z,21.88
2022-10-01T21:35:15.715Z,20.63
2022-10-01T21:37:56.178Z,19.95
2022-10-01T21:41:18.267Z,20.67
2022-10-01T21:44:11.303Z,17.80
2022-10-01T21:47:07.518Z,19.42
2022-10-01T21:49:48.829Z,17.63
2022-10-01T21:52:44.438Z,19.38
2022-10-01T21:55:38.517Z,16.45
2022-10-01T21:58:21.029Z,18.02
2022-10-01T22:00:57.909Z,16.10
2022-10-01T22:03:57.728Z,17.52
2022-10-01T22:06:33.112Z,21.33
2022-10-01T22:09:09.103Z,14.68
2022-10-01T22:11:39.622Z,17.30
2022-10-01T22:14:25.635Z,18.48
2022-10-01T22:16:56.366Z,18.10
2022-10-01T22:19:29.244Z,19.30
2022-10-01T22:22:04.967Z,17.40
2022-10-01T22:24:54.877Z,17.30
2022-10-01T22:27:47.637Z,15.05
2022-10-01T22:30:19.078Z,17.42
2022-10-01T22:32:53.394Z,16.95
2022-10-01T22:35:28.870Z,16.45
2022-10-01T22:38:00.431Z,14.75
2022-10-01T22:40:34.770Z,18.42
2022-10-01T22:43:12.557Z,18.33
2022-10-01T22:46:00.495Z,14.85
2022-10-01T22:48:30.069Z,16.30
2022-10-01T22:51:02.765Z,16.40
2022-10-01T22:53:47.206Z,16.67
2022-10-01T22:56:21.894Z,16.45
2022-10-01T22:59:07.321Z,14.02
2022-10-01T23:01:44.362Z,15.05
2022-10-01T23:04:20.341Z,13.40
2022-10-01T23:07:05.317Z,16.30
2022-10-01T23:09:49.264Z,16.25
2022-10-01T23:12:15.783Z,13.65
2022-10-01T23:14:45.967Z,12.65
2022-10-01T23:17:25.220Z,16.73
2022-10-01T23:20:03.870Z,12.40
2022-10-01T23:22:45.812Z,13.05
2022-10-01T23:25:39.977Z,11.68
2022-10-01T23:28:51.237Z,11.75
2022-10-01T23:31:25.064Z,14.55
2022-10-01T23:33:54.554Z,16.42
2022-10-01T23:36:30.084Z,12.40
2022-10-01T23:39:08.736Z,10.95
2022-10-01T23:41:40.955Z,11.48
2022-10-01T23:44:15.954Z,14.43
2022-10-01T23:46:43.667Z,10.43
2022-10-01T23:49:15.435Z,14.13
2022-10-01T23:51:54.124Z,12.00
2022-10-01T23:54:32.439Z,11.07
2022-10-01T23:57:14.351Z,11.18
2022-10-01T23:59:45.201Z,13.38
